createdAt,value
2022-09-03T00:01:16.333Z,0
2022-09-03T00:03:18.095Z,0
2022-09-03T00:05:19.984Z,0
2022-09-03T00:07:21.818Z,0
2022-09-03T00:09:23.744Z,0
2022-09-03T00:11:25.500Z,0
2022-09-03T00:13:27.182Z,0
2022-09-03T00:15:28.874Z,0
2022-09-03T00:17:30.661Z,0
2022-09-03T00:19:32.269Z,0
2022-09-03T00:21:33.836Z,0
2022-09-03T00:23:35.275Z,0
2022-09-03T00:25:36.684Z,0
2022-09-03T00:27:37.982Z,0.702
2022-09-03T00:29:39.817Z,0
2022-09-03T00:31:41.491Z,0
2022-09-03T00:33:43.266Z,0.702
2022-09-03T00:35:45.057Z,0.28
2022-09-03T00:37:46.513Z,0.14
2022-09-03T00:39:48.148Z,0
2022-09-03T00:41:49.681Z,0
2022-09-03T00:43:50.669Z,0
2022-09-03T00:45:52.049Z,0
2022-09-03T00:47:53.939Z,0
2022-09-03T00:49:55.324Z,0
2022-09-03T00:53:58.509Z,0
2022-09-03T00:56:00.344Z,0
2022-09-03T00:58:02.155Z,0
2022-09-03T01:00:03.864Z,0
2022-09-03T01:02:04.935Z,0
2022-09-03T01:04:06.688Z,0
2022-09-03T01:06:07.679Z,0
2022-09-03T01:08:09.495Z,0
2022-09-03T01:10:11.095Z,0
2022-09-03T01:12:12.463Z,0
2022-09-03T01:14:14.200Z,0
2022-09-03T01:16:15.553Z,0
2022-09-03T01:18:17.289Z,0.842
2022-09-03T01:20:19.118Z,0
2022-09-03T01:22:20.966Z,1.825
2022-09-03T01:24:22.095Z,0.421
2022-09-03T01:26:23.467Z,0
2022-09-03T01:28:25.090Z,0
2022-09-03T01:30:26.459Z,0
2022-09-03T01:32:27.755Z,0
2022-09-03T01:34:28.804Z,0
2022-09-03T01:36:30.743Z,0
2022-09-03T01:38:32.494Z,0
2022-09-03T01:40:33.743Z,0
2022-09-03T01:42:34.882Z,0
2022-09-03T01:44:36.391Z,0
2022-09-03T01:46:37.739Z,0
2022-09-03T01:48:38.814Z,0
2022-09-03T01:50:40.254Z,0.842
2022-09-03T01:52:41.878Z,0
2022-09-03T01:54:43.714Z,0.702
2022-09-03T01:56:45.136Z,0.28
2022-09-03T01:58:46.668Z,0.14
2022-09-03T02:00:47.956Z,0
2022-09-03T02:04:51.082Z,0.421
2022-09-03T02:06:52.274Z,0
2022-09-03T02:08:54.047Z,0.421
2022-09-03T02:10:55.888Z,0.421
2022-09-03T02:14:58.935Z,0
2022-09-03T02:16:59.950Z,0
2022-09-03T02:19:01.126Z,0
2022-09-03T02:21:02.979Z,0
2022-09-03T02:23:04.223Z,0.842
2022-09-03T02:25:05.503Z,0
2022-09-03T02:27:07.246Z,0
2022-09-03T02:29:08.533Z,0
2022-09-03T02:31:10.089Z,0.14
2022-09-03T02:33:11.252Z,0
2022-09-03T02:35:12.393Z,0
2022-09-03T02:37:14.027Z,0
2022-09-03T02:39:15.323Z,0
2022-09-03T02:41:17.105Z,0
2022-09-03T02:43:18.148Z,0
2022-09-03T02:47:21.058Z,0
2022-09-03T02:49:22.045Z,0
2022-09-03T02:51:23.660Z,0
2022-09-03T02:53:25.027Z,0
2022-09-03T02:57:28.601Z,0
2022-09-03T02:59:30.095Z,0
2022-09-03T03:01:32.554Z,0
2022-09-03T03:03:33.500Z,0
2022-09-03T03:05:35.204Z,0
2022-09-03T03:09:38.417Z,0
2022-09-03T03:11:39.999Z,0
2022-09-03T03:13:41.417Z,0
2022-09-03T03:15:42.570Z,0
2022-09-03T03:19:45.498Z,0
2022-09-03T03:21:46.975Z,0
2022-09-03T03:23:48.217Z,0
2022-09-03T03:25:49.966Z,0.28
2022-09-03T03:27:51.429Z,0
2022-09-03T03:29:53.176Z,0
2022-09-03T03:31:54.330Z,0
2022-09-03T03:33:56.073Z,0
2022-09-03T03:35:57.191Z,0
2022-09-03T03:40:00.393Z,0
2022-09-03T03:42:01.831Z,0
2022-09-03T03:44:03.206Z,0
2022-09-03T03:46:05.220Z,0
2022-09-03T03:48:06.045Z,0
2022-09-03T03:50:07.544Z,0
2022-09-03T03:52:08.624Z,0
2022-09-03T03:54:09.738Z,0
2022-09-03T03:56:10.737Z,0
2022-09-03T03:58:12.068Z,0
2022-09-03T04:00:13.468Z,0
2022-09-03T04:02:15.114Z,0
2022-09-03T04:04:16.232Z,0.421
2022-09-03T04:06:17.315Z,0
2022-09-03T04:08:19.283Z,1.544
2022-09-03T04:10:20.320Z,3.369
2022-09-03T04:12:21.415Z,0.561
2022-09-03T04:14:22.574Z,0
2022-09-03T04:16:23.661Z,0
2022-09-03T04:18:25.359Z,0
2022-09-03T04:20:26.701Z,0
2022-09-03T04:22:28.059Z,0
2022-09-03T04:24:29.055Z,0
2022-09-03T04:26:30.625Z,0
2022-09-03T04:28:31.645Z,0
2022-09-03T04:30:33.270Z,0
2022-09-03T04:32:34.515Z,0
2022-09-03T04:34:35.584Z,0
2022-09-03T04:38:37.936Z,0
2022-09-03T04:40:39.502Z,0
2022-09-03T04:42:41.094Z,0
2022-09-03T04:44:42.150Z,0
2022-09-03T04:46:43.822Z,0
2022-09-03T04:48:45.670Z,0
2022-09-03T04:50:47.541Z,0
2022-09-03T04:52:48.520Z,0
2022-09-03T04:54:49.523Z,0
2022-09-03T04:56:51.004Z,0
2022-09-03T04:58:51.961Z,0
2022-09-03T05:00:53.015Z,0
2022-09-03T05:02:54.664Z,0
2022-09-03T05:04:55.813Z,0
2022-09-03T05:06:56.868Z,0
2022-09-03T05:09:07.534Z,0
2022-09-03T05:10:59.751Z,0
2022-09-03T05:13:01.415Z,0
2022-09-03T05:15:03.032Z,0
2022-09-03T05:17:04.854Z,0
2022-09-03T05:21:07.801Z,0.561
2022-09-03T05:23:09.028Z,0
2022-09-03T05:25:10.596Z,0
2022-09-03T05:27:11.598Z,0
2022-09-03T05:29:12.741Z,0
2022-09-03T05:31:14.135Z,0
2022-09-03T05:33:15.220Z,0
2022-09-03T05:35:17.050Z,0.561
2022-09-03T05:37:18.672Z,0
2022-09-03T05:39:19.892Z,0.702
2022-09-03T05:41:21.450Z,0
2022-09-03T05:43:31.022Z,0
2022-09-03T05:45:24.106Z,0
2022-09-03T05:47:25.803Z,0
2022-09-03T05:49:26.821Z,0
2022-09-03T05:51:28.084Z,0
2022-09-03T05:53:29.358Z,0
2022-09-03T05:55:30.403Z,0
2022-09-03T05:57:31.839Z,1.404
2022-09-03T05:59:32.785Z,0.561
2022-09-03T06:01:34.223Z,0
2022-09-03T06:03:36.153Z,0.14
2022-09-03T06:05:37.102Z,0
2022-09-03T06:07:38.560Z,0
2022-09-03T06:09:40.098Z,0.982
2022-09-03T06:11:41.139Z,0.702
2022-09-03T06:13:42.508Z,0
2022-09-03T06:15:43.673Z,2.386
2022-09-03T06:17:45.078Z,0
2022-09-03T06:19:46.174Z,0
2022-09-03T06:21:47.924Z,0
2022-09-03T06:22:57.990Z,1.404
2022-09-03T06:24:59.702Z,2.246
2022-09-03T06:27:00.827Z,0.702
2022-09-03T06:29:02.269Z,2.948
2022-09-03T06:31:03.623Z,0.421
2022-09-03T06:33:05.114Z,0.14
2022-09-03T06:35:06.103Z,0
2022-09-03T06:37:07.148Z,0
2022-09-03T06:39:08.654Z,0
2022-09-03T06:41:10.265Z,2.246
2022-09-03T06:43:11.967Z,0.982
2022-09-03T06:45:13.808Z,0.14
2022-09-03T06:47:14.988Z,0
2022-09-03T06:49:16.112Z,0
2022-09-03T06:51:17.519Z,0
2022-09-03T06:53:18.413Z,0
2022-09-03T06:55:19.555Z,0
2022-09-03T06:57:20.852Z,2.246
2022-09-03T06:59:22.622Z,1.825
2022-09-03T07:01:23.860Z,2.106
2022-09-03T07:03:25.080Z,4.071
2022-09-03T07:05:26.097Z,2.948
2022-09-03T07:07:27.470Z,1.684
2022-09-03T07:09:28.566Z,3.088
2022-09-03T07:11:30.396Z,1.825
2022-09-03T07:13:31.546Z,0
2022-09-03T07:15:32.906Z,2.386
2022-09-03T07:17:34.431Z,0.561
2022-09-03T07:19:35.899Z,1.544
2022-09-03T07:21:37.461Z,0.421
2022-09-03T07:23:39.094Z,4.492
2022-09-03T07:25:40.299Z,3.229
2022-09-03T07:27:42.119Z,1.965
2022-09-03T07:29:43.421Z,0.842
2022-09-03T07:31:44.587Z,3.088
2022-09-03T07:33:46.359Z,2.667
2022-09-03T07:35:47.715Z,3.51
2022-09-03T07:37:48.774Z,5.475
2022-09-03T07:39:50.584Z,4.633
2022-09-03T07:41:51.507Z,3.088
2022-09-03T07:43:52.776Z,2.246
2022-09-03T07:45:54.119Z,2.527
2022-09-03T07:47:55.453Z,0.982
2022-09-03T07:49:57.248Z,0.28
2022-09-03T07:51:58.989Z,1.825
2022-09-03T07:56:02.704Z,1.123
2022-09-03T07:58:04.342Z,0.982
2022-09-03T08:00:05.419Z,1.825
2022-09-03T08:02:06.817Z,1.825
2022-09-03T08:06:09.182Z,0.28
2022-09-03T08:08:10.986Z,4.492
2022-09-03T08:10:12.640Z,6.458
2022-09-03T08:12:14.308Z,7.3
2022-09-03T08:14:15.128Z,4.071
2022-09-03T08:16:16.806Z,5.335
2022-09-03T08:18:17.988Z,4.914
2022-09-03T08:20:19.581Z,2.246
2022-09-03T08:22:20.387Z,4.071
2022-09-03T08:24:21.892Z,1.965
2022-09-03T08:26:22.799Z,2.808
2022-09-03T08:28:24.005Z,4.352
2022-09-03T08:30:25.078Z,2.948
2022-09-03T08:32:26.711Z,6.458
2022-09-03T08:34:27.797Z,3.229
2022-09-03T08:38:30.689Z,5.194
2022-09-03T08:40:31.611Z,1.684
2022-09-03T08:42:33.141Z,2.667
2022-09-03T08:44:34.578Z,4.773
2022-09-03T08:48:36.673Z,2.667
2022-09-03T08:50:37.714Z,2.527
2022-09-03T08:52:38.647Z,1.404
2022-09-03T08:54:40.192Z,0.982
2022-09-03T08:56:41.367Z,0.14
2022-09-03T08:58:42.605Z,0
2022-09-03T09:00:44.009Z,2.246
2022-09-03T09:02:45.027Z,0.702
2022-09-03T09:04:46.943Z,0.702
2022-09-03T09:06:48.469Z,0.702
2022-09-03T09:08:49.304Z,3.088
2022-09-03T09:10:50.235Z,0.842
2022-09-03T09:12:51.775Z,2.808
2022-09-03T09:14:52.775Z,1.965
2022-09-03T09:16:53.765Z,1.684
2022-09-03T09:18:54.932Z,1.544
2022-09-03T09:20:56.232Z,3.088
2022-09-03T09:25:00.402Z,0.982
2022-09-03T09:27:01.374Z,2.948
2022-09-03T09:29:02.568Z,1.825
2022-09-03T09:31:03.482Z,0.28
2022-09-03T09:35:05.769Z,0.702
2022-09-03T09:37:07.370Z,0.14
2022-09-03T09:39:08.311Z,3.51
2022-09-03T09:41:09.224Z,4.492
2022-09-03T09:43:10.295Z,4.773
2022-09-03T09:45:11.812Z,0.561
2022-09-03T09:47:13.101Z,0.421
2022-09-03T09:49:14.682Z,6.037
2022-09-03T09:51:24.826Z,1.544
2022-09-03T09:53:17.046Z,3.088
2022-09-03T09:55:17.806Z,3.931
2022-09-03T09:57:19.363Z,1.684
2022-09-03T09:59:20.489Z,1.684
2022-09-03T10:01:21.935Z,5.475
2022-09-03T10:03:22.648Z,3.369
2022-09-03T10:05:23.618Z,2.948
2022-09-03T10:07:25.264Z,1.825
2022-09-03T10:09:31.297Z,4.071
2022-09-03T10:11:27.691Z,5.194
2022-09-03T10:13:28.781Z,3.369
2022-09-03T10:15:30.344Z,3.229
2022-09-03T10:17:36.801Z,1.123
2022-09-03T10:19:32.425Z,1.544
2022-09-03T10:21:33.339Z,1.684
2022-09-03T10:23:35.164Z,1.263
2022-09-03T10:25:36.889Z,1.965
2022-09-03T10:27:38.863Z,1.544
2022-09-03T10:29:40.320Z,2.808
2022-09-03T10:31:41.819Z,3.088
2022-09-03T10:33:42.629Z,1.404
2022-09-03T10:35:43.457Z,2.386
2022-09-03T10:37:45.018Z,2.808
2022-09-03T10:39:50.150Z,2.386
2022-09-03T10:41:47.900Z,2.667
2022-09-03T10:43:48.680Z,0.421
2022-09-03T10:45:49.724Z,4.633
2022-09-03T10:47:50.718Z,2.527
2022-09-03T10:49:51.945Z,0.28
2022-09-03T10:51:52.864Z,6.037
2022-09-03T10:53:54.300Z,4.352
2022-09-03T10:55:55.525Z,1.263
2022-09-03T10:57:56.304Z,1.825
2022-09-03T10:59:57.325Z,1.965
2022-09-03T11:01:58.389Z,3.931
2022-09-03T11:06:01.059Z,2.106
2022-09-03T11:08:02.011Z,6.037
2022-09-03T11:10:03.432Z,3.369
2022-09-03T11:12:04.783Z,2.527
2022-09-03T11:16:07.551Z,5.475
2022-09-03T11:18:09.109Z,3.229
2022-09-03T11:20:10.851Z,6.598
2022-09-03T11:22:12.313Z,5.896
2022-09-03T11:24:13.267Z,3.088
2022-09-03T11:26:14.558Z,0.28
2022-09-03T11:28:16.126Z,3.229
2022-09-03T11:30:17.009Z,2.667
2022-09-03T11:32:18.403Z,2.527
2022-09-03T11:34:23.712Z,2.386
2022-09-03T11:36:21.405Z,1.544
2022-09-03T11:38:22.969Z,2.667
2022-09-03T11:40:23.668Z,5.335
2022-09-03T11:42:25.296Z,3.931
2022-09-03T11:48:28.654Z,2.106
2022-09-03T11:50:30.171Z,3.65
2022-09-03T11:52:31.312Z,2.106
2022-09-03T11:54:32.822Z,0.28
2022-09-03T11:56:34.529Z,3.79
2022-09-03T11:58:35.473Z,2.386
2022-09-03T12:00:36.583Z,4.071
2022-09-03T12:02:37.974Z,1.544
2022-09-03T12:04:38.958Z,1.825
2022-09-03T12:06:40.447Z,3.229
2022-09-03T12:08:42.027Z,0
2022-09-03T12:10:43.588Z,2.386
2022-09-03T12:12:45.312Z,2.106
2022-09-03T12:14:47.019Z,0.842
2022-09-03T12:16:48.771Z,3.65
2022-09-03T12:18:50.076Z,2.386
2022-09-03T12:20:51.243Z,2.246
2022-09-03T12:24:55.215Z,0.982
2022-09-03T12:26:56.104Z,1.544
2022-09-03T12:28:57.195Z,1.965
2022-09-03T12:30:58.500Z,1.123
2022-09-03T12:32:59.922Z,0
2022-09-03T12:35:01.552Z,3.088
2022-09-03T12:37:02.763Z,3.088
2022-09-03T12:39:12.561Z,1.263
2022-09-03T12:41:23.282Z,0.982
2022-09-03T12:45:07.001Z,1.263
2022-09-03T12:47:35.949Z,2.948
2022-09-03T12:49:31.297Z,0
2022-09-03T12:53:11.109Z,0
2022-09-03T12:57:13.544Z,1.825
2022-09-03T12:59:14.925Z,4.633
2022-09-03T13:01:16.337Z,1.825
2022-09-03T13:03:17.722Z,1.123
2022-09-03T13:05:18.533Z,1.263
2022-09-03T13:07:19.925Z,1.825
2022-09-03T13:08:03.596Z,1.544
2022-09-03T13:10:05.304Z,4.773
2022-09-03T13:12:06.256Z,1.123
2022-09-03T13:14:07.785Z,0.421
2022-09-03T13:16:09.415Z,0
2022-09-03T13:18:10.975Z,1.123
2022-09-03T13:20:11.889Z,0
2022-09-03T13:24:15.029Z,1.965
2022-09-03T13:26:16.598Z,0
2022-09-03T13:28:18.301Z,4.492
2022-09-03T13:30:19.813Z,3.088
2022-09-03T13:34:21.648Z,0.421
2022-09-03T13:36:22.690Z,4.633
2022-09-03T13:38:23.944Z,0.14
2022-09-03T13:40:24.852Z,1.825
2022-09-03T13:42:25.809Z,1.263
2022-09-03T13:44:27.523Z,0
2022-09-03T13:46:28.697Z,1.404
2022-09-03T13:48:29.818Z,2.808
2022-09-03T13:50:31.093Z,0.421
2022-09-03T13:52:32.872Z,4.492
2022-09-03T13:54:48.459Z,2.386
2022-09-03T13:56:35.503Z,1.825
2022-09-03T13:58:37.070Z,3.51
2022-09-03T14:00:38.741Z,0
2022-09-03T14:02:40.352Z,2.527
2022-09-03T14:04:42.098Z,4.212
2022-09-03T14:06:43.317Z,3.931
2022-09-03T14:08:44.543Z,1.263
2022-09-03T14:10:46.150Z,1.123
2022-09-03T14:12:47.316Z,0.14
2022-09-03T14:14:49.033Z,0
2022-09-03T14:16:50.049Z,0.14
2022-09-03T14:18:51.229Z,0
2022-09-03T14:20:52.799Z,2.948
2022-09-03T14:22:54.505Z,4.071
2022-09-03T14:24:56.192Z,2.386
2022-09-03T14:26:57.740Z,3.931
2022-09-03T14:28:58.713Z,3.229
2022-09-03T14:30:59.652Z,2.246
2022-09-03T14:33:01.143Z,4.633
2022-09-03T14:35:02.478Z,1.825
2022-09-03T14:37:03.622Z,3.65
2022-09-03T14:39:04.835Z,2.667
2022-09-03T14:41:06.217Z,1.123
2022-09-03T14:43:07.320Z,1.263
2022-09-03T14:45:08.170Z,1.123
2022-09-03T14:47:09.071Z,2.808
2022-09-03T14:49:10.059Z,4.492
2022-09-03T14:51:11.391Z,0
2022-09-03T14:53:12.457Z,0.561
2022-09-03T14:55:13.663Z,2.527
2022-09-03T14:57:14.767Z,0
2022-09-03T14:59:15.901Z,0.842
2022-09-03T15:01:17.555Z,1.544
2022-09-03T15:05:19.404Z,1.965
2022-09-03T15:07:21.167Z,3.369
2022-09-03T15:09:22.673Z,0
2022-09-03T15:11:23.736Z,3.229
2022-09-03T15:15:27.209Z,0.421
2022-09-03T15:17:28.159Z,0.421
2022-09-03T15:19:29.534Z,0
2022-09-03T15:21:31.056Z,2.948
2022-09-03T15:23:32.827Z,3.65
2022-09-03T15:25:33.977Z,0
2022-09-03T15:27:35.627Z,0.982
2022-09-03T15:29:37.121Z,3.229
2022-09-03T15:31:38.960Z,0
2022-09-03T15:33:39.994Z,2.106
2022-09-03T15:35:41.055Z,1.965
2022-09-03T15:37:42.441Z,1.123
2022-09-03T15:39:43.559Z,5.616
2022-09-03T15:41:44.437Z,4.633
2022-09-03T15:43:45.875Z,2.386
2022-09-03T15:45:46.954Z,6.318
2022-09-03T15:47:51.297Z,6.037
2022-09-03T15:49:49.175Z,5.616
2022-09-03T15:51:50.599Z,4.212
2022-09-03T15:53:52.166Z,3.51
2022-09-03T15:55:53.489Z,8.283
2022-09-03T15:57:55.019Z,4.492
2022-09-03T15:59:56.176Z,7.722
2022-09-03T16:03:59.088Z,2.808
2022-09-03T16:06:00.364Z,2.386
2022-09-03T16:08:01.908Z,3.369
2022-09-03T16:10:23.554Z,2.527
2022-09-03T16:12:05.217Z,5.054
2022-09-03T16:14:06.964Z,5.054
2022-09-03T16:16:07.970Z,1.965
2022-09-03T16:18:09.338Z,3.369
2022-09-03T16:20:10.812Z,3.79
2022-09-03T16:22:11.905Z,0.982
2022-09-03T16:24:12.738Z,2.106
2022-09-03T16:26:13.873Z,1.404
2022-09-03T16:28:15.477Z,9.406
2022-09-03T16:30:16.318Z,0.982
2022-09-03T16:32:17.416Z,4.071
2022-09-03T16:34:19.035Z,4.492
2022-09-03T16:36:20.343Z,6.177
2022-09-03T16:38:21.975Z,4.633
2022-09-03T16:40:26.036Z,4.633
2022-09-03T16:42:24.861Z,5.475
2022-09-03T16:46:28.303Z,5.335
2022-09-03T16:48:29.266Z,0.842
2022-09-03T16:50:30.481Z,1.123
2022-09-03T16:52:38.397Z,1.263
2022-09-03T16:54:33.373Z,0.28
2022-09-03T16:56:34.682Z,0.421
2022-09-03T16:58:36.274Z,1.684
2022-09-03T17:00:38.133Z,0.982
2022-09-03T17:02:41.423Z,2.527
2022-09-03T17:04:40.959Z,3.088
2022-09-03T17:06:42.569Z,0.982
2022-09-03T17:08:44.046Z,1.404
2022-09-03T17:10:45.541Z,0.702
2022-09-03T17:12:46.508Z,0
2022-09-03T17:14:48.042Z,0
2022-09-03T17:16:49.073Z,0
2022-09-03T17:18:50.276Z,0.14
2022-09-03T17:20:51.855Z,3.65
2022-09-03T17:22:53.209Z,4.492
2022-09-03T17:24:54.456Z,2.808
2022-09-03T17:28:57.343Z,0.561
2022-09-03T17:30:58.908Z,2.246
2022-09-03T17:32:59.897Z,0.561
2022-09-03T17:35:01.226Z,0.28
2022-09-03T17:39:04.296Z,1.123
2022-09-03T17:41:06.069Z,0.28
2022-09-03T17:45:08.419Z,1.544
2022-09-03T17:47:10.093Z,0.702
2022-09-03T17:49:11.226Z,1.404
2022-09-03T17:51:12.379Z,1.123
2022-09-03T17:53:13.341Z,0.421
2022-09-03T17:55:14.891Z,0
2022-09-03T17:57:16.185Z,0
2022-09-03T18:01:18.894Z,0
2022-09-03T18:03:20.902Z,0
2022-09-03T18:05:21.733Z,0
2022-09-03T18:07:23.027Z,1.123
2022-09-03T18:11:25.673Z,0.702
2022-09-03T18:13:26.834Z,0.561
2022-09-03T18:15:27.895Z,0
2022-09-03T18:17:29.548Z,0
2022-09-03T18:19:30.858Z,0
2022-09-03T18:21:32.520Z,0
2022-09-03T18:23:33.637Z,0
2022-09-03T18:25:34.751Z,0
2022-09-03T18:27:36.192Z,0
2022-09-03T18:29:37.894Z,0
2022-09-03T18:31:39.660Z,0
2022-09-03T18:33:41.186Z,0
2022-09-03T18:35:42.380Z,0
2022-09-03T18:37:43.509Z,0
2022-09-03T18:39:44.732Z,0
2022-09-03T18:41:46.131Z,0
2022-09-03T18:43:47.053Z,0
2022-09-03T18:46:22.604Z,0
2022-09-03T18:48:05.663Z,0
2022-09-03T18:49:50.752Z,0
2022-09-03T18:51:52.024Z,0.28
2022-09-03T18:54:01.457Z,0
2022-09-03T18:55:54.614Z,0
2022-09-03T18:57:55.955Z,0.702
2022-09-03T18:59:57.382Z,0
2022-09-03T19:01:59.306Z,0
2022-09-03T19:04:00.389Z,0.561
2022-09-03T19:06:01.630Z,0
2022-09-03T19:10:04.185Z,2.386
2022-09-03T19:12:05.891Z,1.263
2022-09-03T19:14:06.976Z,1.123
2022-09-03T19:16:08.684Z,0.842
2022-09-03T19:20:11.111Z,0.14
2022-09-03T19:22:12.525Z,0
2022-09-03T19:24:14.001Z,0
2022-09-03T19:26:15.886Z,0
2022-09-03T19:28:21.430Z,0
2022-09-03T19:30:19.674Z,0
2022-09-03T19:32:20.828Z,0
2022-09-03T19:34:21.845Z,0
2022-09-03T19:36:22.754Z,0
2022-09-03T19:38:24.167Z,0
2022-09-03T19:40:25.680Z,0
2022-09-03T19:42:27.427Z,0
2022-09-03T19:44:28.475Z,0
2022-09-03T19:46:30.001Z,0
2022-09-03T19:48:31.203Z,0
2022-09-03T19:52:33.618Z,0
2022-09-03T19:53:17.486Z,0
2022-09-03T19:57:19.646Z,0
2022-09-03T19:59:21.069Z,0
2022-09-03T20:01:22.654Z,0
2022-09-03T20:03:24.297Z,0
2022-09-03T20:05:26.028Z,0
2022-09-03T20:07:27.237Z,0
2022-09-03T20:09:28.781Z,0
2022-09-03T20:11:29.729Z,0
2022-09-03T20:13:30.916Z,0
2022-09-03T20:15:32.021Z,0
2022-09-03T20:17:32.939Z,0
2022-09-03T20:19:34.173Z,0
2022-09-03T20:21:35.387Z,0
2022-09-03T20:23:36.706Z,0
2022-09-03T20:25:38.500Z,0
2022-09-03T20:27:40.379Z,0
2022-09-03T20:29:41.929Z,0
2022-09-03T20:31:43.774Z,0.561
2022-09-03T20:33:45.574Z,0.28
2022-09-03T20:35:46.540Z,0
2022-09-03T20:37:48.058Z,0
2022-09-03T20:39:49.360Z,0
2022-09-03T20:41:50.573Z,0
2022-09-03T20:43:51.809Z,0
2022-09-03T20:45:53.434Z,0
2022-09-03T20:47:54.906Z,0
2022-09-03T20:49:56.266Z,0
2022-09-03T20:51:57.315Z,0
2022-09-03T20:53:58.823Z,0
2022-09-03T20:56:00.171Z,0
2022-09-03T20:58:01.454Z,0
2022-09-03T21:00:02.773Z,0
2022-09-03T21:02:04.665Z,0
2022-09-03T21:04:05.634Z,0
2022-09-03T21:06:06.580Z,0
2022-09-03T21:08:08.109Z,0
2022-09-03T21:10:09.946Z,0
2022-09-03T21:12:11.288Z,0
2022-09-03T21:14:13.148Z,0
2022-09-03T21:18:16.382Z,1.123
2022-09-03T21:20:18.142Z,0
2022-09-03T21:22:19.193Z,0
2022-09-03T21:24:20.575Z,0
2022-09-03T21:28:22.934Z,0
2022-09-03T21:30:24.383Z,0
2022-09-03T21:32:25.424Z,0
2022-09-03T21:34:26.368Z,0
2022-09-03T21:38:28.492Z,0
2022-09-03T21:40:30.169Z,0
2022-09-03T21:42:31.831Z,0
2022-09-03T21:44:32.869Z,0
2022-09-03T21:46:34.396Z,0
2022-09-03T21:50:37.286Z,0
2022-09-03T21:52:38.387Z,0
2022-09-03T21:54:40.047Z,0
2022-09-03T21:56:41.151Z,0
2022-09-03T21:58:42.865Z,0
2022-09-03T22:00:44.648Z,0
2022-09-03T22:02:46.184Z,0
2022-09-03T22:04:47.246Z,0
2022-09-03T22:06:49.075Z,0
2022-09-03T22:10:52.153Z,0
2022-09-03T22:12:53.134Z,0
2022-09-03T22:14:54.740Z,0
2022-09-03T22:16:56.280Z,0
2022-09-03T22:20:58.927Z,0
2022-09-03T22:23:00.037Z,0
2022-09-03T22:25:01.923Z,0
2022-09-03T22:27:03.474Z,0
2022-09-03T22:29:05.371Z,0
2022-09-03T22:31:06.217Z,0
2022-09-03T22:33:07.884Z,0
2022-09-03T22:35:08.925Z,0
2022-09-03T22:37:10.422Z,0
2022-09-03T22:39:11.873Z,0
2022-09-03T22:41:13.077Z,0
2022-09-03T22:43:14.989Z,0
2022-09-03T22:45:16.306Z,0
2022-09-03T22:47:17.314Z,0
2022-09-03T22:49:18.926Z,0
2022-09-03T22:51:21.852Z,0
2022-09-03T22:53:21.429Z,0
2022-09-03T22:55:22.529Z,0
2022-09-03T22:57:23.468Z,0
2022-09-03T22:59:24.620Z,0
2022-09-03T23:01:26.124Z,0
2022-09-03T23:03:27.745Z,0
2022-09-03T23:05:29.029Z,0
2022-09-03T23:07:30.804Z,0
2022-09-03T23:09:31.919Z,0
2022-09-03T23:11:33.019Z,0
2022-09-03T23:13:34.322Z,0
2022-09-03T23:15:36.043Z,0
2022-09-03T23:19:38.124Z,0
2022-09-03T23:21:39.908Z,0
2022-09-03T23:23:41.842Z,0
2022-09-03T23:25:43.289Z,0
2022-09-03T23:27:45.026Z,0
2022-09-03T23:29:46.376Z,0
2022-09-03T23:31:48.069Z,0
2022-09-03T23:33:49.911Z,0
2022-09-03T23:35:51.291Z,0
2022-09-03T23:37:52.487Z,0
2022-09-03T23:41:55.312Z,0
2022-09-03T23:43:56.961Z,0
2022-09-03T23:45:58.633Z,0
2022-09-03T23:48:00.239Z,0
2022-09-03T23:50:01.923Z,0
2022-09-03T23:52:03.476Z,0
2022-09-03T23:54:05.219Z,0
2022-09-03T23:56:07.025Z,0
2022-09-03T23:58:08.164Z,0
